x

Big Carlos Pass, Fl (bgcf1) Weather Station

5:54am - Mon 8th Feb 2016 All times are EST. -5 hours from GMT.

  • Wind
    2mph, 3mph gusts
  • Air Temp 51°f
  • Sea Pressure 1019mb
  • Big Carlos Pass, Fl
  • Big Carlos Pass, Fl

More Historic Weather Station data

Upgrade to MSW Pro to gain access to the past 30 days of data for over 8000 Wavebouys and Weather Stations around the globe.

Join Pro

Comparision Forecast

View Surf forecast
   
Mon 02/08 5:54am 2 3 mph 1019mb 51f
5:48am 2 3 mph 1019mb 51f
4:54am 2 5 mph 1018.6mb 51f
4:48am 3 5 mph 1018.6mb 51f
3:54am 7 8 mph 1018.2mb 52f
3:48am 8 10 mph 1018.2mb 52f
2:54am 9 11 mph 1018.7mb 53f
2:48am 11 14 mph 1018.8mb 53f
1:54am 13 15 mph 1019.1mb 53f
1:48am 13 15 mph 1019.1mb 53f
12:54am 11 14 mph 1019.3mb 53f
12:48am 13 15 mph 1019.4mb 53f
Sun 02/07 11:54pm 10 14 mph 1019.9mb 54f
11:48pm 9 14 mph 1019.9mb 54f
10:54pm 10 13 mph 1019.9mb 54f
10:48pm 13 16 mph 1019.9mb 54f
9:54pm 7 9 mph 1019.4mb 55f
9:48pm 7 10 mph 1019.3mb 56f
8:54pm 9 13 mph 1018.6mb 56f
8:48pm 10 13 mph 1018.5mb 56f
7:54pm 10 14 mph 1018.4mb 56f
7:48pm 9 14 mph 1018.4mb 56f
6:54pm 10 14 mph 1018.3mb 56f
6:48pm 11 17 mph 1018.3mb 56f
5:54pm 11 18 mph 1018.2mb 57f
5:48pm 14 20 mph 1018.2mb 57f
4:54pm 16 22 mph 1017.8mb 57f
4:48pm 16 24 mph 1017.8mb 57f
3:54pm 14 22 mph 1017.6mb 57f
3:48pm 14 22 mph 1017.5mb 58f
2:54pm 16 22 mph 1017.3mb 57f
2:48pm 17 25 mph 1017.4mb 58f
1:54pm 14 22 mph 1017.5mb 58f
1:48pm 14 20 mph 1017.6mb 58f
12:54pm 16 23 mph 1018.7mb 58f
12:48pm 16 25 mph 1018.8mb 57f
11:54am 21 26 mph 1019mb 57f
11:48am 21 28 mph 1019mb 57f
10:54am 20 28 mph 1019.7mb 57f
10:48am 18 24 mph 1019.8mb 57f
9:54am 14 16 mph 1019.4mb 55f
9:48am 14 18 mph 1019.3mb 55f
8:54am 13 18 mph 1018.9mb 54f
8:48am 14 17 mph 1018.6mb 54f
6:54am 18 28 mph 1017.1mb 54f
6:48am 15 18 mph 1017mb 54f
5:54am 15 22 mph 1016.2mb 54f
5:48am 16 20 mph 1016mb 54f
4:54am 15 26 mph 1016.1mb 55f
4:48am 14 20 mph 1016.2mb 55f
3:54am 16 22 mph 1016mb 55f
3:48am 17 22 mph 1016mb 56f
2:54am 21 28 mph 1015.9mb 56f
2:48am 20 24 mph 1016mb 56f
1:54am 13 16 mph 1016.7mb 56f
1:48am 13 17 mph 1016.7mb 56f
12:54am 15 21 mph 1017.4mb 56f
12:48am 16 22 mph 1017.3mb 56f
Sat 02/06 11:54pm 16 21 mph 1017.9mb 57f
11:48pm 18 24 mph 1017.9mb 57f
10:54pm 16 21 mph 1018mb 57f
10:48pm 14 18 mph 1018mb 57f
9:54pm 11 16 mph 1018.8mb 58f
9:48pm 10 15 mph 1018.9mb 58f
8:54pm 7 16 mph 1019mb 58f
8:48pm 8 13 mph 1019mb 58f
7:54pm 10 13 mph 1018.3mb 58f
7:48pm 8 10 mph 1018.5mb 58f
6:54pm 11 16 mph 1018.6mb 58f
6:48pm 11 15 mph 1018.7mb 58f
5:54pm 17 24 mph 1018.8mb 59f
5:48pm 15 20 mph 1018.8mb 59f
4:54pm 9 16 mph 1018.3mb 60f
4:48pm 10 18 mph 1018.2mb 60f
3:54pm 14 22 mph 1018.1mb 60f
3:48pm 13 18 mph 1018.3mb 60f
2:54pm 11 17 mph 1018.2mb 61f
2:48pm 9 15 mph 1018.2mb 61f
1:54pm 14 18 mph 1018.7mb 61f
1:48pm 13 17 mph 1018.9mb 62f
12:54pm 10 14 mph 1019.9mb 65f
12:48pm 9 13 mph 1020.1mb 65f
11:54am 8 9 mph 1020.5mb 68f
11:48am 8 9 mph 1020.6mb 68f
10:54am 9 10 mph 1021.2mb 64f
10:48am 10 11 mph 1021.3mb 64f
9:54am 9 10 mph 1021.1mb 60f
9:48am 9 10 mph 1021.2mb 60f
8:54am 9 10 mph 1021.1mb 57f
8:48am 10 13 mph 1021.1mb 57f
7:54am 13 16 mph 1020.9mb 56f
7:48am 13 14 mph 1020.7mb 56f
6:54am 9 11 mph 1020.5mb 55f
6:48am 10 11 mph 1020.6mb 55f
5:54am 13 14 mph 1020.7mb 55f
5:48am 11 14 mph 1020.7mb 55f
4:54am 14 16 mph 1019.9mb 54f
4:48am 14 18 mph 1020mb 54f
3:54am 11 15 mph 1019.6mb 54f
3:48am 14 17 mph 1019.6mb 54f
2:54am 16 20 mph 1020.3mb 55f
2:48am 17 21 mph 1020mb 54f
1:54am 16 21 mph 1020.4mb 55f
1:48am 16 21 mph 1020.5mb 55f
12:54am 17 21 mph 1021.6mb 55f
12:48am 18 21 mph 1021.6mb 56f
Fri 02/05 11:54pm 18 21 mph 1022.3mb 56f
11:48pm 20 22 mph 1022.3mb 56f
10:54pm 21 25 mph 1022.7mb 56f
10:48pm 21 23 mph 1022.7mb 57f
9:54pm 17 20 mph 1022.8mb 57f
9:48pm 17 21 mph 1022.9mb 57f
8:54pm 14 17 mph 1022.9mb 58f
8:48pm 15 17 mph 1023mb 58f
7:54pm 14 17 mph 1022.7mb 59f
7:48pm 13 16 mph 1022.7mb 60f
6:54pm 11 14 mph 1022.3mb 61f
6:48pm 13 15 mph 1022.2mb 61f
5:54pm 14 16 mph 1021.7mb 64f
5:48pm 14 20 mph 1021.6mb 64f
4:54pm 18 24 mph 1021mb 64f
4:48pm 18 25 mph 1021mb 65f
3:54pm 17 22 mph 1020.9mb 65f
3:48pm 15 21 mph 1020.9mb 65f
2:54pm 17 25 mph 1020.9mb 65f
2:48pm 16 18 mph 1021mb 64f
1:54pm 20 24 mph 1021.1mb 62f
1:48pm 18 24 mph 1021.3mb 62f
12:54pm 18 26 mph 1022.2mb 60f
12:48pm 18 23 mph 1022.2mb 60f
11:54am 23 29 mph 1023.1mb 58f
11:48am 22 30 mph 1023.2mb 58f